createdAt,value
2018-08-08T12:53:39.186Z,12.93
2018-08-08T12:56:10.329Z,13.47
2018-08-08T12:58:40.820Z,13.37
2018-08-08T13:01:17.143Z,14.50
2018-08-08T13:03:58.559Z,15.07
2018-08-08T13:06:34.162Z,14.10
2018-08-08T13:09:14.016Z,15.53
2018-08-08T13:11:44.538Z,13.20
2018-08-08T13:14:22.109Z,13.27
2018-08-08T13:16:56.194Z,14.07
2018-08-08T13:19:36.104Z,13.50
2018-08-08T13:22:13.119Z,13.60
2018-08-08T13:24:49.475Z,14.20
2018-08-08T13:27:23.941Z,14.80
2018-08-08T13:29:58.609Z,13.10
2018-08-08T13:32:30.637Z,12.90
2018-08-08T13:35:13.924Z,16.03
2018-08-08T13:37:48.448Z,14.40
2018-08-08T13:40:28.677Z,13.53
2018-08-08T13:43:02.355Z,13.47
2018-08-08T13:45:38.314Z,15.23
2018-08-08T13:48:13.002Z,14.50
2018-08-08T13:50:50.523Z,14.03
2018-08-08T13:53:23.125Z,13.47
2018-08-08T13:55:58.848Z,14.03
2018-08-08T13:58:32.608Z,15.37
2018-08-08T14:01:07.535Z,13.83
2018-08-08T14:03:38.939Z,13.10
2018-08-08T14:12:06.054Z,13.70
2018-08-08T14:15:13.918Z,14.33
2018-08-08T14:21:00.441Z,14.27
2018-08-08T14:24:33.145Z,14.00
2018-08-08T14:27:18.757Z,15.73
2018-08-08T14:30:38.867Z,14.03
2018-08-08T14:33:24.692Z,16.33
2018-08-08T14:45:04.081Z,15.57
2018-08-08T14:48:15.890Z,17.60
2018-08-08T14:59:45.004Z,17.63
2018-08-08T15:05:26.923Z,16.43
2018-08-08T15:08:09.335Z,16.67
2018-08-08T15:16:50.024Z,17.70
2018-08-08T15:22:36.391Z,18.30
2018-08-08T15:25:16.193Z,16.77
2018-08-08T15:27:50.280Z,17.27
2018-08-08T15:30:21.447Z,18.50
2018-08-08T15:32:52.707Z,18.63
2018-08-08T15:35:25.043Z,20.60
2018-08-08T15:37:57.141Z,17.47
2018-08-08T15:40:27.563Z,18.83
2018-08-08T15:42:58.409Z,17.53
2018-08-08T15:45:30.274Z,18.80
2018-08-08T15:48:03.279Z,19.80
2018-08-08T15:50:38.296Z,18.93
2018-08-08T15:53:10.168Z,22.17
2018-08-08T15:55:42.015Z,19.03
2018-08-08T16:01:39.411Z,19.83
2018-08-08T16:07:15.536Z,21.50
2018-08-08T16:09:50.954Z,20.57
2018-08-08T16:12:22.794Z,22.37
2018-08-08T16:14:58.197Z,21.20
2018-08-08T16:17:28.761Z,22.00
2018-08-08T16:20:00.767Z,20.87
2018-08-08T16:22:38.805Z,23.10
2018-08-08T16:25:13.537Z,22.23
2018-08-08T16:27:52.699Z,24.37
2018-08-08T16:30:24.650Z,24.80
2018-08-08T16:32:55.402Z,24.30
2018-08-08T16:35:28.801Z,26.13
2018-08-08T18:12:01.234Z,28.40
2018-08-08T18:14:37.712Z,29.17
2018-08-08T18:17:08.721Z,28.83
2018-08-08T18:19:38.866Z,28.90
2018-08-08T18:22:09.695Z,30.53
2018-08-08T18:24:40.389Z,29.77
2018-08-08T18:27:14.710Z,32.73
2018-08-08T18:29:49.204Z,30.60
2018-08-08T18:44:50.388Z,31.73
2018-08-08T18:59:19.755Z,10.20
2018-08-08T19:02:26.272Z,7.70
2018-08-08T19:08:30.287Z,6.10
2018-08-08T19:11:03.232Z,5.97
2018-08-08T19:13:33.973Z,6.20
2018-08-08T19:16:04.045Z,5.00
2018-08-08T19:18:35.011Z,7.57
2018-08-08T19:21:05.730Z,6.73
2018-08-08T19:23:39.610Z,7.53
2018-08-08T19:26:12.137Z,7.77
2018-08-08T19:28:44.026Z,5.90
2018-08-08T19:31:20.290Z,7.10
2018-08-08T19:33:52.757Z,7.30
2018-08-08T19:36:25.901Z,10.50
2018-08-08T19:38:56.469Z,8.30
2018-08-08T19:41:29.604Z,6.63
2018-08-08T19:44:01.756Z,7.07
2018-08-08T19:46:33.273Z,8.37
2018-08-08T19:49:11.258Z,8.33
2018-08-08T19:52:01.834Z,8.43
